createdAt,value
2019-05-09T00:02:13.949Z,11.40
2019-05-09T00:04:41.239Z,11.95
2019-05-09T00:07:09.808Z,14.75
2019-05-09T00:09:37.030Z,13.58
2019-05-09T00:12:04.389Z,14.28
2019-05-09T00:14:34.048Z,12.40
2019-05-09T00:17:00.866Z,12.50
2019-05-09T00:19:28.147Z,14.68
2019-05-09T00:21:55.757Z,14.85
2019-05-09T00:24:23.841Z,13.50
2019-05-09T00:26:53.262Z,15.13
2019-05-09T00:29:27.810Z,12.28
2019-05-09T00:32:03.474Z,8.48
2019-05-09T00:34:49.580Z,13.70
2019-05-09T00:37:16.990Z,15.70
2019-05-09T00:39:44.233Z,15.58
2019-05-09T00:42:13.728Z,15.53
2019-05-09T00:44:53.287Z,14.63
2019-05-09T00:47:27.921Z,15.43
2019-05-09T00:49:55.208Z,13.60
2019-05-09T00:52:23.470Z,15.32
2019-05-09T00:54:53.015Z,13.38
2019-05-09T00:57:34.776Z,14.70
2019-05-09T01:00:05.507Z,16.93
2019-05-09T01:02:34.033Z,11.28
2019-05-09T01:05:04.020Z,12.63
2019-05-09T01:07:33.643Z,11.18
2019-05-09T01:10:00.939Z,12.20
2019-05-09T01:12:28.229Z,14.63
2019-05-09T01:14:55.451Z,18.80
2019-05-09T01:17:24.079Z,12.60
2019-05-09T01:19:53.859Z,12.53
2019-05-09T01:22:21.191Z,16.77
2019-05-09T01:24:48.486Z,18.15
2019-05-09T01:27:15.951Z,13.60
2019-05-09T01:29:43.965Z,16.55
2019-05-09T01:32:14.446Z,17.48
2019-05-09T01:34:43.664Z,15.55
2019-05-09T01:37:13.919Z,13.62
2019-05-09T01:39:40.973Z,12.00
2019-05-09T01:42:08.213Z,17.15
2019-05-09T01:44:35.646Z,15.88
2019-05-09T01:47:03.833Z,13.18
2019-05-09T01:49:31.327Z,20.75
2019-05-09T01:51:58.544Z,18.98
2019-05-09T01:54:26.555Z,16.30
2019-05-09T01:56:53.884Z,16.27
2019-05-09T01:59:21.151Z,19.25
2019-05-09T02:01:48.457Z,19.70
2019-05-09T02:04:15.694Z,17.75
2019-05-09T02:06:44.057Z,20.25
2019-05-09T02:09:13.865Z,20.35
2019-05-09T02:11:43.315Z,17.80
2019-05-09T02:14:13.463Z,16.50
2019-05-09T02:16:54.634Z,26.00
2019-05-09T02:19:26.250Z,21.20
2019-05-09T02:21:53.455Z,13.08
2019-05-09T02:24:23.187Z,14.38
2019-05-09T02:26:49.799Z,17.85
2019-05-09T02:29:17.014Z,18.12
2019-05-09T02:31:44.864Z,15.55
2019-05-09T02:34:14.906Z,16.57
2019-05-09T02:36:41.197Z,17.35
2019-05-09T02:39:09.131Z,15.98
2019-05-09T02:41:38.938Z,17.25
2019-05-09T02:44:09.007Z,17.27
2019-05-09T02:46:41.966Z,14.87
2019-05-09T02:49:09.249Z,16.17
2019-05-09T02:51:38.756Z,15.88
2019-05-09T02:54:09.556Z,15.75
2019-05-09T02:56:38.395Z,22.62
2019-05-09T02:59:09.481Z,16.62
2019-05-09T03:01:50.297Z,15.63
2019-05-09T03:04:18.862Z,14.05
2019-05-09T03:06:48.915Z,15.40
2019-05-09T03:09:18.755Z,14.15
2019-05-09T03:11:44.607Z,17.85
2019-05-09T03:14:11.827Z,15.40
2019-05-09T03:16:40.023Z,18.85
2019-05-09T03:19:09.071Z,15.98
2019-05-09T03:21:39.218Z,19.10
2019-05-09T03:24:09.829Z,16.35
2019-05-09T03:26:38.611Z,16.32
2019-05-09T03:29:10.734Z,15.95
2019-05-09T03:31:39.832Z,15.30
2019-05-09T03:34:09.366Z,12.88
2019-05-09T03:36:38.529Z,16.17
2019-05-09T03:39:08.224Z,17.12
2019-05-09T03:41:35.533Z,18.20
2019-05-09T03:44:02.798Z,15.30
2019-05-09T03:46:38.487Z,10.88
2019-05-09T03:49:07.742Z,13.13
2019-05-09T03:51:34.970Z,12.65
2019-05-09T03:54:02.270Z,14.00
2019-05-09T03:56:33.912Z,12.23
2019-05-09T03:59:01.134Z,11.33
2019-05-09T04:01:28.361Z,10.55
2019-05-09T04:03:55.653Z,11.75
2019-05-09T04:06:22.889Z,14.70
2019-05-09T04:08:50.124Z,12.73
2019-05-09T04:11:18.971Z,11.95
2019-05-09T04:13:47.999Z,12.25
2019-05-09T04:16:17.346Z,9.38
2019-05-09T04:18:44.329Z,10.78
2019-05-09T04:21:11.555Z,8.83
2019-05-09T04:23:38.777Z,11.63
2019-05-09T04:26:19.998Z,20.48
2019-05-09T04:31:14.458Z,11.43
2019-05-09T04:33:42.035Z,14.70
2019-05-09T04:36:09.280Z,12.75
2019-05-09T04:38:39.741Z,14.83
2019-05-09T04:41:07.429Z,12.90
2019-05-09T04:43:37.473Z,14.33
2019-05-09T04:46:07.879Z,12.33
2019-05-09T04:48:37.956Z,10.85
2019-05-09T04:51:07.591Z,10.65
2019-05-09T04:53:34.316Z,10.13
2019-05-09T04:56:03.347Z,11.00
2019-05-09T04:58:30.759Z,11.05
2019-05-09T05:01:19.549Z,9.60
2019-05-09T05:03:48.012Z,10.95
2019-05-09T05:06:18.165Z,10.80
2019-05-09T05:08:44.318Z,15.63
2019-05-09T05:11:11.600Z,9.58
2019-05-09T05:13:39.764Z,13.32
2019-05-09T05:16:08.446Z,9.48
2019-05-09T05:18:37.384Z,13.22
2019-05-09T05:21:04.890Z,20.90
2019-05-09T05:23:48.976Z,11.83
2019-05-09T05:26:18.294Z,18.77
2019-05-09T05:28:47.473Z,9.48
2019-05-09T05:31:14.837Z,14.43
2019-05-09T05:33:53.889Z,12.07
2019-05-09T05:36:23.185Z,8.00
2019-05-09T05:38:50.734Z,16.77
2019-05-09T05:41:18.417Z,8.78
2019-05-09T05:43:47.767Z,14.38
2019-05-09T05:46:18.208Z,12.58
2019-05-09T05:48:48.536Z,16.20
2019-05-09T05:51:15.390Z,16.52
2019-05-09T05:53:42.656Z,16.37
2019-05-09T05:56:09.937Z,13.00
2019-05-09T05:58:39.507Z,6.85
2019-05-09T06:01:08.218Z,9.98
2019-05-09T06:03:37.667Z,10.88
2019-05-09T06:06:05.762Z,12.70
2019-05-09T06:08:33.039Z,13.62
2019-05-09T06:11:00.487Z,11.00
2019-05-09T06:13:27.742Z,13.08
2019-05-09T06:15:55.185Z,8.53
2019-05-09T06:18:22.464Z,12.18
2019-05-09T06:20:49.726Z,12.00
2019-05-09T06:23:17.653Z,15.03
2019-05-09T06:25:48.259Z,11.20
2019-05-09T06:28:14.538Z,18.00
2019-05-09T06:30:41.831Z,8.88
2019-05-09T06:33:09.285Z,16.45
2019-05-09T06:35:37.908Z,15.18
2019-05-09T06:38:07.685Z,16.00
2019-05-09T06:40:34.439Z,8.80
2019-05-09T06:43:03.812Z,26.02
2019-05-09T06:45:32.847Z,18.32
2019-05-09T06:48:00.442Z,37.67
2019-05-09T06:50:28.159Z,13.90
2019-05-09T06:52:57.214Z,9.90
2019-05-09T06:55:27.665Z,15.43
2019-05-09T06:57:54.504Z,18.15
2019-05-09T07:00:48.934Z,8.08
2019-05-09T07:03:28.350Z,26.70
2019-05-09T07:06:04.432Z,21.97
2019-05-09T07:08:47.533Z,12.13
2019-05-09T07:11:14.760Z,19.15
2019-05-09T07:13:42.019Z,15.18
2019-05-09T07:16:09.371Z,16.15
2019-05-09T07:18:38.265Z,22.70
2019-05-09T07:21:05.551Z,13.78
2019-05-09T07:23:32.801Z,18.52
2019-05-09T07:26:10.547Z,9.35
2019-05-09T07:28:37.872Z,24.90
2019-05-09T07:31:19.038Z,12.13
2019-05-09T07:36:18.934Z,18.12
2019-05-09T07:38:47.786Z,9.18
2019-05-09T07:41:17.637Z,7.55
2019-05-09T07:43:44.439Z,9.60
2019-05-09T07:46:13.464Z,13.85
2019-05-09T07:48:42.497Z,12.40
2019-05-09T07:51:09.772Z,18.02
2019-05-09T07:53:38.020Z,8.63
2019-05-09T07:56:07.906Z,10.15
2019-05-09T07:58:37.506Z,15.78
2019-05-09T08:01:03.970Z,21.93
2019-05-09T08:03:31.238Z,6.53
2019-05-09T08:05:58.549Z,9.48
2019-05-09T08:08:27.768Z,9.43
2019-05-09T08:10:54.842Z,15.13
2019-05-09T08:13:22.139Z,3.58
2019-05-09T08:15:49.363Z,11.78
2019-05-09T08:18:17.440Z,8.10
2019-05-09T08:20:44.787Z,13.28
2019-05-09T08:23:12.050Z,6.10
2019-05-09T08:25:39.285Z,23.02
2019-05-09T08:28:08.831Z,14.75
2019-05-09T08:30:37.427Z,10.32
2019-05-09T08:33:04.980Z,9.53
2019-05-09T08:35:32.287Z,11.73
2019-05-09T08:37:59.556Z,6.75
2019-05-09T08:40:28.384Z,23.47
2019-05-09T08:42:58.358Z,7.58
2019-05-09T08:45:30.248Z,19.48
2019-05-09T08:47:53.945Z,22.05
2019-05-09T08:50:28.588Z,6.22
2019-05-09T08:52:57.621Z,16.05
2019-05-09T08:55:24.854Z,8.93
2019-05-09T08:57:52.124Z,10.03
2019-05-09T09:00:19.341Z,16.90
2019-05-09T09:02:48.235Z,11.30
2019-05-09T09:05:18.444Z,8.43
2019-05-09T09:07:44.743Z,7.08
2019-05-09T09:10:12.024Z,8.43
2019-05-09T09:12:39.345Z,5.78
2019-05-09T09:15:07.707Z,15.53
2019-05-09T09:17:35.230Z,12.35
2019-05-09T09:20:04.684Z,18.90
2019-05-09T09:22:31.926Z,6.67
2019-05-09T09:24:59.161Z,16.62
2019-05-09T09:27:27.440Z,5.30
2019-05-09T09:29:54.667Z,11.03
2019-05-09T09:32:21.917Z,9.75
2019-05-09T09:34:49.212Z,10.25
2019-05-09T09:37:18.467Z,6.65
2019-05-09T09:39:45.456Z,11.73
2019-05-09T09:42:12.801Z,10.08
2019-05-09T09:44:40.031Z,8.98
2019-05-09T09:47:07.438Z,4.70
2019-05-09T09:49:35.345Z,9.68
2019-05-09T09:52:02.586Z,13.80
2019-05-09T09:54:29.791Z,6.78
2019-05-09T09:56:58.647Z,6.85
2019-05-09T09:59:33.887Z,8.73
2019-05-09T10:02:10.018Z,11.53
2019-05-09T10:04:34.612Z,14.18
2019-05-09T10:07:01.829Z,6.47
2019-05-09T10:09:29.114Z,6.37
2019-05-09T10:11:58.186Z,7.67
2019-05-09T10:14:30.361Z,8.15
2019-05-09T10:16:59.382Z,8.03
2019-05-09T10:19:31.509Z,11.33
2019-05-09T10:22:00.830Z,10.85
2019-05-09T10:24:28.200Z,8.93
2019-05-09T10:27:11.833Z,15.88
2019-05-09T10:29:39.146Z,8.43
2019-05-09T10:32:08.928Z,15.15
2019-05-09T10:34:37.808Z,23.67
2019-05-09T10:37:07.541Z,5.72
2019-05-09T10:39:34.254Z,14.87
2019-05-09T10:42:03.553Z,12.93
2019-05-09T10:44:37.462Z,7.33
2019-05-09T10:47:09.217Z,11.95
2019-05-09T10:49:37.955Z,10.38
2019-05-09T10:52:05.513Z,9.60
2019-05-09T10:54:32.837Z,14.20
2019-05-09T10:57:00.066Z,15.18
2019-05-09T10:59:27.326Z,11.33
2019-05-09T11:01:54.938Z,15.68
2019-05-09T11:04:22.197Z,6.87
2019-05-09T11:06:49.414Z,9.55
2019-05-09T11:09:18.221Z,9.08
2019-05-09T11:11:48.173Z,10.55
2019-05-09T11:14:31.580Z,12.68
2019-05-09T11:16:47.383Z,10.85
2019-05-09T11:19:12.938Z,4.33
2019-05-09T11:21:42.945Z,6.05
2019-05-09T11:24:10.751Z,7.50
2019-05-09T11:26:39.869Z,4.70
2019-05-09T11:29:07.959Z,10.30
2019-05-09T11:31:38.170Z,4.25
2019-05-09T11:34:04.758Z,14.80
2019-05-09T11:36:32.195Z,7.50
2019-05-09T11:39:00.804Z,11.48
2019-05-09T11:41:29.530Z,13.80
2019-05-09T11:43:59.496Z,15.90
2019-05-09T11:46:28.125Z,20.23
2019-05-09T11:48:55.313Z,14.35
2019-05-09T11:51:22.946Z,12.85
2019-05-09T11:53:50.349Z,4.22
2019-05-09T11:56:18.094Z,16.00
2019-05-09T11:58:47.828Z,14.50
2019-05-09T12:01:14.792Z,7.85
2019-05-09T12:03:42.043Z,2.90
2019-05-09T12:06:09.307Z,9.15
2019-05-09T12:08:38.731Z,8.95
2019-05-09T12:11:08.187Z,7.65
2019-05-09T12:13:34.752Z,19.23
2019-05-09T12:16:02.072Z,14.90
2019-05-09T12:18:29.301Z,5.90
2019-05-09T12:20:57.729Z,2.98
2019-05-09T12:23:25.075Z,5.22
2019-05-09T12:25:53.854Z,10.63
2019-05-09T12:28:21.079Z,7.17
2019-05-09T12:30:48.993Z,3.52
2019-05-09T12:33:18.655Z,8.50
2019-05-09T12:35:47.606Z,3.17
2019-05-09T12:38:14.464Z,5.33
2019-05-09T12:40:41.749Z,5.08
2019-05-09T12:43:09.234Z,7.70
2019-05-09T12:45:38.801Z,9.55
2019-05-09T12:48:14.611Z,13.13
2019-05-09T12:50:38.569Z,6.35
2019-05-09T12:53:06.737Z,5.75
2019-05-09T12:55:33.958Z,3.62
2019-05-09T12:58:01.186Z,6.53
2019-05-09T13:00:29.491Z,5.80
2019-05-09T13:02:59.233Z,9.05
2019-05-09T13:05:27.414Z,10.70
2019-05-09T13:07:54.920Z,4.97
2019-05-09T13:10:22.145Z,4.92
2019-05-09T13:12:49.457Z,12.43
2019-05-09T13:15:18.565Z,10.63
2019-05-09T13:17:48.008Z,6.40
2019-05-09T13:20:17.875Z,13.30
2019-05-09T13:22:47.165Z,7.25
2019-05-09T13:25:14.426Z,8.85
2019-05-09T13:27:43.221Z,9.73
2019-05-09T13:30:10.838Z,9.23
2019-05-09T13:32:38.383Z,5.22
2019-05-09T13:35:05.624Z,8.23
2019-05-09T13:37:33.129Z,2.90
2019-05-09T13:40:00.402Z,6.25
2019-05-09T13:42:28.541Z,8.35
2019-05-09T13:44:56.294Z,4.28
2019-05-09T13:47:23.509Z,8.88
2019-05-09T13:49:50.743Z,9.70
2019-05-09T13:52:18.159Z,7.97
2019-05-09T13:54:48.032Z,5.42
2019-05-09T13:57:14.592Z,15.38
2019-05-09T13:59:42.252Z,8.48
2019-05-09T14:02:09.515Z,2.58
2019-05-09T14:04:39.704Z,9.13
2019-05-09T14:07:08.090Z,8.03
2019-05-09T14:09:34.896Z,7.08
2019-05-09T14:12:02.457Z,6.42
2019-05-09T14:14:29.765Z,9.70
2019-05-09T14:16:59.221Z,9.55
2019-05-09T14:19:39.901Z,10.68
2019-05-09T14:21:58.251Z,5.22
2019-05-09T14:24:24.306Z,8.10
2019-05-09T14:26:51.549Z,8.80
2019-05-09T14:29:20.575Z,2.62
2019-05-09T14:31:48.130Z,5.28
2019-05-09T14:34:15.384Z,6.62
2019-05-09T14:36:45.727Z,16.97
2019-05-09T14:39:11.747Z,4.15
2019-05-09T14:41:39.377Z,3.55
2019-05-09T14:44:09.374Z,5.65
2019-05-09T14:46:35.852Z,10.15
2019-05-09T14:49:03.113Z,8.38
2019-05-09T14:51:30.778Z,14.53
2019-05-09T14:53:59.498Z,5.05
2019-05-09T14:56:28.335Z,6.57
2019-05-09T14:58:57.916Z,4.53
2019-05-09T15:01:28.434Z,9.98
2019-05-09T15:03:54.644Z,4.33
2019-05-09T15:06:21.937Z,8.10
2019-05-09T15:08:49.163Z,3.87
2019-05-09T15:11:18.194Z,7.15
2019-05-09T15:13:47.575Z,6.42
2019-05-09T15:16:14.523Z,17.65
2019-05-09T15:18:41.793Z,3.65
2019-05-09T15:21:09.111Z,4.33
2019-05-09T15:23:39.066Z,7.20
2019-05-09T15:26:07.582Z,6.22
2019-05-09T15:28:34.560Z,5.53
2019-05-09T15:31:02.091Z,5.35
2019-05-09T15:33:29.385Z,2.42
2019-05-09T15:35:58.908Z,7.87
2019-05-09T15:38:25.710Z,5.17
2019-05-09T15:40:52.975Z,6.22
2019-05-09T15:43:20.256Z,3.67
2019-05-09T15:45:49.310Z,12.90
2019-05-09T15:48:18.089Z,11.03
2019-05-09T15:50:47.593Z,10.75
2019-05-09T15:53:14.635Z,4.72
2019-05-09T15:55:41.913Z,6.85
2019-05-09T15:58:09.199Z,8.73
2019-05-09T16:00:38.484Z,8.23
2019-05-09T16:03:05.542Z,8.03
2019-05-09T16:05:32.921Z,5.10
2019-05-09T16:08:00.156Z,6.70
2019-05-09T16:10:28.353Z,7.78
2019-05-09T16:12:56.410Z,11.70
2019-05-09T16:15:24.058Z,8.10
2019-05-09T16:17:51.305Z,5.60
2019-05-09T16:20:35.943Z,5.60
2019-05-09T16:22:48.244Z,8.10
2019-05-09T16:25:15.665Z,10.53
2019-05-09T16:27:43.028Z,5.35
2019-05-09T16:30:10.403Z,4.40
2019-05-09T16:32:38.070Z,3.55
2019-05-09T16:35:07.763Z,6.78
2019-05-09T16:37:52.849Z,9.98
2019-05-09T16:40:05.472Z,5.58
2019-05-09T16:42:33.299Z,9.50
2019-05-09T16:45:00.859Z,10.00
2019-05-09T16:47:28.509Z,10.63
2019-05-09T16:49:57.894Z,18.00
2019-05-09T16:52:24.878Z,18.20
2019-05-09T16:54:54.062Z,5.37
2019-05-09T16:57:21.700Z,4.97
2019-05-09T16:59:49.060Z,5.25
2019-05-09T17:02:23.993Z,11.73
2019-05-09T17:04:46.966Z,9.75
2019-05-09T17:07:14.557Z,5.20
2019-05-09T17:09:42.792Z,5.67
2019-05-09T17:12:10.057Z,6.75
2019-05-09T17:14:37.273Z,7.62
2019-05-09T17:17:04.686Z,6.78
2019-05-09T17:19:31.994Z,8.03
2019-05-09T17:22:12.980Z,4.30
2019-05-09T17:24:40.765Z,7.30
2019-05-09T17:27:08.795Z,12.68
2019-05-09T17:29:38.320Z,13.98
2019-05-09T17:32:07.589Z,13.58
2019-05-09T17:34:35.094Z,14.20
2019-05-09T17:37:02.451Z,18.50
2019-05-09T17:39:29.770Z,9.58
2019-05-09T17:41:59.503Z,19.07
2019-05-09T17:44:28.093Z,15.03
2019-05-09T17:46:57.767Z,19.15
2019-05-09T17:49:24.656Z,23.60
2019-05-09T17:51:52.484Z,25.52
2019-05-09T17:54:20.004Z,17.50
2019-05-09T17:56:48.433Z,17.55
2019-05-09T17:59:18.358Z,20.68
2019-05-09T18:01:48.254Z,20.52
2019-05-09T18:04:17.769Z,20.82
2019-05-09T18:06:44.625Z,23.83
2019-05-09T18:09:11.926Z,25.62
2019-05-09T18:11:39.153Z,20.45
2019-05-09T18:14:08.080Z,31.87
2019-05-09T18:16:38.746Z,40.63
2019-05-09T18:19:04.832Z,32.95
2019-05-09T18:21:32.158Z,41.18
2019-05-09T18:24:00.751Z,31.85
2019-05-09T18:26:28.001Z,29.63
2019-05-09T18:28:58.535Z,35.75
2019-05-09T18:31:27.902Z,39.63
2019-05-09T18:33:58.211Z,26.27
2019-05-09T18:36:28.197Z,72.20
2019-05-09T18:38:55.799Z,46.28
2019-05-09T18:41:23.129Z,47.67
2019-05-09T18:43:50.393Z,30.05
2019-05-09T18:46:21.190Z,20.77
2019-05-09T18:48:46.909Z,27.80
2019-05-09T18:51:15.086Z,26.68
2019-05-09T18:53:44.241Z,25.12
2019-05-09T18:56:11.829Z,24.82
2019-05-09T18:58:39.554Z,32.45
2019-05-09T19:01:06.961Z,37.30
2019-05-09T19:03:34.298Z,54.48
2019-05-09T19:06:01.670Z,71.45
2019-05-09T19:08:29.008Z,76.92
2019-05-09T19:10:56.389Z,75.47
2019-05-09T19:13:25.979Z,54.80
2019-05-09T19:15:58.217Z,45.25
2019-05-09T19:18:44.706Z,38.05
2019-05-09T19:21:16.422Z,32.45
2019-05-09T19:23:43.707Z,103.10
2019-05-09T19:26:29.303Z,255.32
2019-05-09T19:28:57.739Z,158.52
2019-05-09T19:31:25.008Z,202.87
2019-05-09T19:33:52.362Z,294.13
2019-05-09T19:36:20.556Z,318.42
2019-05-09T19:38:49.302Z,283.50
2019-05-09T19:41:17.327Z,499.55
2019-05-09T19:43:44.742Z,325.62
2019-05-09T19:46:12.044Z,114.37
2019-05-09T19:48:40.085Z,81.82
2019-05-09T19:51:07.436Z,31.35
2019-05-09T19:53:35.192Z,24.32
2019-05-09T19:56:02.557Z,21.75
2019-05-09T19:58:29.844Z,21.27
2019-05-09T20:00:57.055Z,25.65
2019-05-09T20:03:24.468Z,25.90
2019-05-09T20:05:51.814Z,20.90
2019-05-09T20:08:19.153Z,28.25
2019-05-09T20:11:02.143Z,32.20
2019-05-09T20:13:48.147Z,26.07
2019-05-09T20:16:15.615Z,16.97
2019-05-09T20:18:42.985Z,22.67
2019-05-09T20:21:10.300Z,66.02
2019-05-09T20:23:37.604Z,18.05
2019-05-09T20:26:06.258Z,25.43
2019-05-09T20:28:34.231Z,21.17
2019-05-09T20:31:02.757Z,16.20
2019-05-09T20:33:30.010Z,12.20
2019-05-09T20:35:57.310Z,14.33
2019-05-09T20:38:26.090Z,21.87
2019-05-09T20:40:54.994Z,20.08
2019-05-09T20:43:22.335Z,18.75
2019-05-09T20:45:49.668Z,19.20
2019-05-09T20:48:16.947Z,35.25
2019-05-09T20:50:44.729Z,57.20
2019-05-09T20:53:12.073Z,107.15
2019-05-09T20:55:39.288Z,103.87
2019-05-09T20:58:06.565Z,76.62
2019-05-09T21:00:33.880Z,70.97
2019-05-09T21:03:01.132Z,43.28
2019-05-09T21:05:28.857Z,111.22
2019-05-09T21:07:56.154Z,82.60
2019-05-09T21:10:23.429Z,59.60
2019-05-09T21:12:50.688Z,30.90
2019-05-09T21:15:18.013Z,40.28
2019-05-09T21:17:45.218Z,45.92
2019-05-09T21:20:12.487Z,39.27
2019-05-09T21:22:39.839Z,35.00
2019-05-09T21:25:07.724Z,45.10
2019-05-09T21:27:35.291Z,64.10
2019-05-09T21:30:04.080Z,25.70
2019-05-09T21:32:31.494Z,63.48
2019-05-09T21:34:58.744Z,50.23
2019-05-09T21:37:26.361Z,45.65
2019-05-09T21:39:53.598Z,38.67
2019-05-09T21:42:23.410Z,47.78
2019-05-09T21:44:50.687Z,41.40
2019-05-09T21:47:17.919Z,43.42
2019-05-09T21:49:45.131Z,39.55
2019-05-09T21:52:12.530Z,32.75
2019-05-09T21:54:39.839Z,28.92
2019-05-09T21:57:09.184Z,30.45
2019-05-09T21:59:36.612Z,26.87
2019-05-09T22:02:04.681Z,27.40
2019-05-09T22:04:33.925Z,24.90
2019-05-09T22:07:02.453Z,27.37
2019-05-09T22:09:29.716Z,29.40
2019-05-09T22:11:56.951Z,24.75
2019-05-09T22:14:24.258Z,22.30
2019-05-09T22:16:51.606Z,18.10
2019-05-09T22:19:18.840Z,18.82
2019-05-09T22:21:46.138Z,24.90
2019-05-09T22:24:13.369Z,21.48
2019-05-09T22:26:40.669Z,19.10
2019-05-09T22:29:07.933Z,18.75
2019-05-09T22:31:35.209Z,22.58
2019-05-09T22:34:02.450Z,16.25
2019-05-09T22:36:29.736Z,22.60
2019-05-09T22:38:56.982Z,20.48
2019-05-09T22:41:24.580Z,19.87
2019-05-09T22:43:52.704Z,21.90
2019-05-09T22:46:20.284Z,22.82
2019-05-09T22:48:47.653Z,22.32
2019-05-09T22:51:15.198Z,23.07
2019-05-09T22:53:42.450Z,32.03
2019-05-09T22:56:10.014Z,30.72
2019-05-09T22:58:37.369Z,28.02
2019-05-09T23:01:04.742Z,40.92
2019-05-09T23:03:32.030Z,44.98
2019-05-09T23:05:59.355Z,35.08
2019-05-09T23:08:26.617Z,37.28
2019-05-09T23:10:55.786Z,35.78
2019-05-09T23:13:23.183Z,39.00
2019-05-09T23:15:50.841Z,34.27
2019-05-09T23:18:18.418Z,34.03
2019-05-09T23:20:47.512Z,33.60
2019-05-09T23:23:23.054Z,34.90
2019-05-09T23:25:50.845Z,44.33
2019-05-09T23:28:18.432Z,100.47
2019-05-09T23:30:48.411Z,74.32
2019-05-09T23:33:15.737Z,67.05
2019-05-09T23:35:42.966Z,129.93
2019-05-09T23:38:10.242Z,845.17
2019-05-09T23:40:37.516Z,515.65
2019-05-09T23:43:04.779Z,75.05
2019-05-09T23:45:33.479Z,98.62
2019-05-09T23:48:00.771Z,44.27
2019-05-09T23:50:28.351Z,36.98
2019-05-09T23:52:55.592Z,30.45
2019-05-09T23:55:41.158Z,32.28
2019-05-09T23:58:26.785Z,27.87
